sensor_id;sensor_type;location;lat;lon;timestamp;pressure;altitude;pressure_sealevel;temperature
13570;BMP180;6856;51.460;7.158;2023-01-28T00:00:17;101570.00;;;6.50
13570;BMP180;6856;51.460;7.158;2023-01-28T00:02:50;101569.00;;;6.50
13570;BMP180;6856;51.460;7.158;2023-01-28T00:05:26;101564.00;;;6.50
13570;BMP180;6856;51.460;7.158;2023-01-28T00:08:01;101563.00;;;6.50
13570;BMP180;6856;51.460;7.158;2023-01-28T00:10:36;101560.00;;;6.50
13570;BMP180;6856;51.460;7.158;2023-01-28T00:13:12;101570.00;;;6.50
13570;BMP180;6856;51.460;7.158;2023-01-28T00:15:54;101559.00;;;6.50
13570;BMP180;6856;51.460;7.158;2023-01-28T00:18:30;101550.00;;;6.50
13570;BMP180;6856;51.460;7.158;2023-01-28T00:21:08;101562.00;;;6.50
13570;BMP180;6856;51.460;7.158;2023-01-28T00:23:47;101553.00;;;6.40
13570;BMP180;6856;51.460;7.158;2023-01-28T00:26:23;101557.00;;;6.40
13570;BMP180;6856;51.460;7.158;2023-01-28T00:28:57;101556.00;;;6.40
13570;BMP180;6856;51.460;7.158;2023-01-28T00:31:31;101558.00;;;6.40
13570;BMP180;6856;51.460;7.158;2023-01-28T00:34:07;101565.00;;;6.40
13570;BMP180;6856;51.460;7.158;2023-01-28T00:36:42;101563.00;;;6.40
13570;BMP180;6856;51.460;7.158;2023-01-28T00:39:16;101569.00;;;6.40
13570;BMP180;6856;51.460;7.158;2023-01-28T00:41:50;101561.00;;;6.40
13570;BMP180;6856;51.460;7.158;2023-01-28T00:44:23;101574.00;;;6.40
13570;BMP180;6856;51.460;7.158;2023-01-28T00:46:57;101542.00;;;6.40
13570;BMP180;6856;51.460;7.158;2023-01-28T00:49:32;101575.00;;;6.40
13570;BMP180;6856;51.460;7.158;2023-01-28T00:52:07;101541.00;;;6.40
13570;BMP180;6856;51.460;7.158;2023-01-28T00:54:41;101566.00;;;6.40
13570;BMP180;6856;51.460;7.158;2023-01-28T00:57:15;101566.00;;;6.40
13570;BMP180;6856;51.460;7.158;2023-01-28T00:59:48;101571.00;;;6.40
13570;BMP180;6856;51.460;7.158;2023-01-28T01:02:22;101574.00;;;6.40
13570;BMP180;6856;51.460;7.158;2023-01-28T01:04:56;101576.00;;;6.40
13570;BMP180;6856;51.460;7.158;2023-01-28T01:07:34;101575.00;;;6.40
13570;BMP180;6856;51.460;7.158;2023-01-28T01:10:16;101567.00;;;6.40
13570;BMP180;6856;51.460;7.158;2023-01-28T01:12:50;101577.00;;;6.40
13570;BMP180;6856;51.460;7.158;2023-01-28T01:15:24;101567.00;;;6.40
13570;BMP180;6856;51.460;7.158;2023-01-28T01:17:59;101574.00;;;6.40
13570;BMP180;6856;51.460;7.158;2023-01-28T01:20:32;101577.00;;;6.40
13570;BMP180;6856;51.460;7.158;2023-01-28T01:23:12;101568.00;;;6.40
13570;BMP180;6856;51.460;7.158;2023-01-28T01:25:46;101564.00;;;6.40
13570;BMP180;6856;51.460;7.158;2023-01-28T01:28:20;101571.00;;;6.30
13570;BMP180;6856;51.460;7.158;2023-01-28T01:30:59;101568.00;;;6.40
13570;BMP180;6856;51.460;7.158;2023-01-28T01:33:34;101562.00;;;6.40
13570;BMP180;6856;51.460;7.158;2023-01-28T01:36:10;101562.00;;;6.40
13570;BMP180;6856;51.460;7.158;2023-01-28T01:38:45;101577.00;;;6.40
13570;BMP180;6856;51.460;7.158;2023-01-28T01:41:25;101581.00;;;6.30
13570;BMP180;6856;51.460;7.158;2023-01-28T01:44:02;101580.00;;;6.30
13570;BMP180;6856;51.460;7.158;2023-01-28T01:46:43;101579.00;;;6.30
13570;BMP180;6856;51.460;7.158;2023-01-28T01:49:22;101580.00;;;6.30
13570;BMP180;6856;51.460;7.158;2023-01-28T01:52:02;101577.00;;;6.30
13570;BMP180;6856;51.460;7.158;2023-01-28T01:54:45;101583.00;;;6.30
13570;BMP180;6856;51.460;7.158;2023-01-28T01:57:27;101587.00;;;6.20
13570;BMP180;6856;51.460;7.158;2023-01-28T02:00:05;101588.00;;;6.30
13570;BMP180;6856;51.460;7.158;2023-01-28T02:02:44;101589.00;;;6.20
13570;BMP180;6856;51.460;7.158;2023-01-28T02:05:21;101595.00;;;6.20
13570;BMP180;6856;51.460;7.158;2023-01-28T02:07:57;101593.00;;;6.20
13570;BMP180;6856;51.460;7.158;2023-01-28T02:10:58;101592.00;;;6.20
13570;BMP180;6856;51.460;7.158;2023-01-28T02:13:38;101592.00;;;6.10
13570;BMP180;6856;51.460;7.158;2023-01-28T02:16:14;101600.00;;;6.10
13570;BMP180;6856;51.460;7.158;2023-01-28T02:18:48;101599.00;;;6.10
13570;BMP180;6856;51.460;7.158;2023-01-28T02:22:02;101583.00;;;6.10
13570;BMP180;6856;51.460;7.158;2023-01-28T02:25:16;101589.00;;;6.10
13570;BMP180;6856;51.460;7.158;2023-01-28T02:28:12;101595.00;;;6.10
13570;BMP180;6856;51.460;7.158;2023-01-28T02:30:55;101604.00;;;6.10
13570;BMP180;6856;51.460;7.158;2023-01-28T02:33:40;101587.00;;;6.10
13570;BMP180;6856;51.460;7.158;2023-01-28T02:36:27;101595.00;;;6.10
13570;BMP180;6856;51.460;7.158;2023-01-28T02:39:11;101601.00;;;6.10
13570;BMP180;6856;51.460;7.158;2023-01-28T02:41:54;101600.00;;;6.10
13570;BMP180;6856;51.460;7.158;2023-01-28T02:44:30;101604.00;;;6.10
13570;BMP180;6856;51.460;7.158;2023-01-28T02:47:08;101603.00;;;6.10
13570;BMP180;6856;51.460;7.158;2023-01-28T02:50:04;101602.00;;;6.10
13570;BMP180;6856;51.460;7.158;2023-01-28T02:52:55;101598.00;;;6.10
13570;BMP180;6856;51.460;7.158;2023-01-28T02:56:14;101613.00;;;6.10
13570;BMP180;6856;51.460;7.158;2023-01-28T02:59:00;101607.00;;;6.00
13570;BMP180;6856;51.460;7.158;2023-01-28T03:02:06;101589.00;;;6.00
13570;BMP180;6856;51.460;7.158;2023-01-28T03:04:47;101605.00;;;6.00
13570;BMP180;6856;51.460;7.158;2023-01-28T03:07:26;101579.00;;;6.00
13570;BMP180;6856;51.460;7.158;2023-01-28T03:10:08;101606.00;;;6.00
13570;BMP180;6856;51.460;7.158;2023-01-28T03:12:44;101594.00;;;6.00
13570;BMP180;6856;51.460;7.158;2023-01-28T03:15:40;101601.00;;;6.00
13570;BMP180;6856;51.460;7.158;2023-01-28T03:18:42;101602.00;;;5.90
13570;BMP180;6856;51.460;7.158;2023-01-28T03:21:41;101591.00;;;5.90
13570;BMP180;6856;51.460;7.158;2023-01-28T03:24:41;101605.00;;;5.90
13570;BMP180;6856;51.460;7.158;2023-01-28T03:27:46;101585.00;;;5.90
13570;BMP180;6856;51.460;7.158;2023-01-28T03:30:44;101579.00;;;5.90
13570;BMP180;6856;51.460;7.158;2023-01-28T03:33:39;101587.00;;;5.80
13570;BMP180;6856;51.460;7.158;2023-01-28T03:36:32;101580.00;;;5.80
13570;BMP180;6856;51.460;7.158;2023-01-28T03:39:26;101588.00;;;5.80
13570;BMP180;6856;51.460;7.158;2023-01-28T03:42:04;101586.00;;;5.80
13570;BMP180;6856;51.460;7.158;2023-01-28T03:44:38;101597.00;;;5.80
13570;BMP180;6856;51.460;7.158;2023-01-28T03:47:30;101592.00;;;5.80
13570;BMP180;6856;51.460;7.158;2023-01-28T03:50:08;101605.00;;;5.80
13570;BMP180;6856;51.460;7.158;2023-01-28T03:52:42;101608.00;;;5.80
13570;BMP180;6856;51.460;7.158;2023-01-28T03:55:15;101605.00;;;5.80
13570;BMP180;6856;51.460;7.158;2023-01-28T03:57:49;101606.00;;;5.80
13570;BMP180;6856;51.460;7.158;2023-01-28T04:00:23;101599.00;;;5.80
13570;BMP180;6856;51.460;7.158;2023-01-28T04:02:56;101612.00;;;5.80
13570;BMP180;6856;51.460;7.158;2023-01-28T04:05:32;101607.00;;;5.90
13570;BMP180;6856;51.460;7.158;2023-01-28T04:08:06;101609.00;;;5.90
13570;BMP180;6856;51.460;7.158;2023-01-28T04:10:40;101607.00;;;5.90
13570;BMP180;6856;51.460;7.158;2023-01-28T04:13:15;101598.00;;;5.90
13570;BMP180;6856;51.460;7.158;2023-01-28T04:15:49;101617.00;;;5.90
13570;BMP180;6856;51.460;7.158;2023-01-28T04:18:23;101624.00;;;5.90
13570;BMP180;6856;51.460;7.158;2023-01-28T04:20:59;101624.00;;;5.90
13570;BMP180;6856;51.460;7.158;2023-01-28T04:23:33;101608.00;;;5.80
13570;BMP180;6856;51.460;7.158;2023-01-28T04:26:07;101623.00;;;5.80
13570;BMP180;6856;51.460;7.158;2023-01-28T04:28:41;101624.00;;;5.80
13570;BMP180;6856;51.460;7.158;2023-01-28T04:31:15;101627.00;;;5.80
13570;BMP180;6856;51.460;7.158;2023-01-28T04:33:49;101631.00;;;5.90
13570;BMP180;6856;51.460;7.158;2023-01-28T04:36:24;101630.00;;;5.80
13570;BMP180;6856;51.460;7.158;2023-01-28T04:38:58;101633.00;;;5.80
13570;BMP180;6856;51.460;7.158;2023-01-28T04:41:32;101626.00;;;5.80
13570;BMP180;6856;51.460;7.158;2023-01-28T04:44:06;101625.00;;;5.80
13570;BMP180;6856;51.460;7.158;2023-01-28T04:46:40;101628.00;;;5.80
13570;BMP180;6856;51.460;7.158;2023-01-28T04:49:14;101627.00;;;5.80
13570;BMP180;6856;51.460;7.158;2023-01-28T04:51:49;101615.00;;;5.80
13570;BMP180;6856;51.460;7.158;2023-01-28T04:54:22;101623.00;;;5.80
13570;BMP180;6856;51.460;7.158;2023-01-28T04:56:56;101620.00;;;5.80
13570;BMP180;6856;51.460;7.158;2023-01-28T04:59:30;101619.00;;;5.80
13570;BMP180;6856;51.460;7.158;2023-01-28T05:02:03;101628.00;;;5.80
13570;BMP180;6856;51.460;7.158;2023-01-28T05:04:37;101623.00;;;5.80
13570;BMP180;6856;51.460;7.158;2023-01-28T05:07:12;101622.00;;;5.80
13570;BMP180;6856;51.460;7.158;2023-01-28T05:09:45;101626.00;;;5.80
13570;BMP180;6856;51.460;7.158;2023-01-28T05:12:19;101612.00;;;5.80
13570;BMP180;6856;51.460;7.158;2023-01-28T05:14:53;101621.00;;;5.80
13570;BMP180;6856;51.460;7.158;2023-01-28T05:17:26;101618.00;;;5.80
13570;BMP180;6856;51.460;7.158;2023-01-28T05:20:00;101619.00;;;5.80
13570;BMP180;6856;51.460;7.158;2023-01-28T05:22:35;101623.00;;;5.70
13570;BMP180;6856;51.460;7.158;2023-01-28T05:25:09;101618.00;;;5.70
13570;BMP180;6856;51.460;7.158;2023-01-28T05:27:48;101622.00;;;5.70
13570;BMP180;6856;51.460;7.158;2023-01-28T05:30:23;101628.00;;;5.70
13570;BMP180;6856;51.460;7.158;2023-01-28T05:32:56;101636.00;;;5.70
13570;BMP180;6856;51.460;7.158;2023-01-28T05:35:30;101634.00;;;5.70
13570;BMP180;6856;51.460;7.158;2023-01-28T05:38:06;101628.00;;;5.70
13570;BMP180;6856;51.460;7.158;2023-01-28T05:40:39;101631.00;;;5.70
13570;BMP180;6856;51.460;7.158;2023-01-28T05:43:12;101628.00;;;5.70
13570;BMP180;6856;51.460;7.158;2023-01-28T05:45:47;101637.00;;;5.70
13570;BMP180;6856;51.460;7.158;2023-01-28T05:48:20;101638.00;;;5.70
13570;BMP180;6856;51.460;7.158;2023-01-28T05:50:54;101637.00;;;5.70
13570;BMP180;6856;51.460;7.158;2023-01-28T05:53:29;101638.00;;;5.60
13570;BMP180;6856;51.460;7.158;2023-01-28T05:56:03;101648.00;;;5.60
13570;BMP180;6856;51.460;7.158;2023-01-28T05:58:37;101653.00;;;5.60
13570;BMP180;6856;51.460;7.158;2023-01-28T06:01:11;101656.00;;;5.60
13570;BMP180;6856;51.460;7.158;2023-01-28T06:03:44;101657.00;;;5.60
13570;BMP180;6856;51.460;7.158;2023-01-28T06:06:18;101666.00;;;5.60
13570;BMP180;6856;51.460;7.158;2023-01-28T06:08:53;101666.00;;;5.60
13570;BMP180;6856;51.460;7.158;2023-01-28T06:11:27;101661.00;;;5.60
13570;BMP180;6856;51.460;7.158;2023-01-28T06:14:00;101655.00;;;5.60
13570;BMP180;6856;51.460;7.158;2023-01-28T06:16:34;101650.00;;;5.60
13570;BMP180;6856;51.460;7.158;2023-01-28T06:19:08;101659.00;;;5.60
13570;BMP180;6856;51.460;7.158;2023-01-28T06:21:41;101659.00;;;5.60
13570;BMP180;6856;51.460;7.158;2023-01-28T06:24:17;101644.00;;;5.60
13570;BMP180;6856;51.460;7.158;2023-01-28T06:26:50;101648.00;;;5.60
13570;BMP180;6856;51.460;7.158;2023-01-28T06:29:24;101647.00;;;5.60
13570;BMP180;6856;51.460;7.158;2023-01-28T06:31:58;101650.00;;;5.60
13570;BMP180;6856;51.460;7.158;2023-01-28T06:34:32;101656.00;;;5.60
13570;BMP180;6856;51.460;7.158;2023-01-28T06:37:05;101654.00;;;5.60
13570;BMP180;6856;51.460;7.158;2023-01-28T06:39:41;101646.00;;;5.60
13570;BMP180;6856;51.460;7.158;2023-01-28T06:42:15;101665.00;;;5.60
13570;BMP180;6856;51.460;7.158;2023-01-28T06:44:48;101651.00;;;5.60
13570;BMP180;6856;51.460;7.158;2023-01-28T06:47:22;101662.00;;;5.60
13570;BMP180;6856;51.460;7.158;2023-01-28T06:49:55;101656.00;;;5.60
13570;BMP180;6856;51.460;7.158;2023-01-28T06:52:29;101653.00;;;5.60
13570;BMP180;6856;51.460;7.158;2023-01-28T06:55:05;101647.00;;;5.50
13570;BMP180;6856;51.460;7.158;2023-01-28T06:57:40;101651.00;;;5.50
13570;BMP180;6856;51.460;7.158;2023-01-28T07:00:17;101643.00;;;5.50
13570;BMP180;6856;51.460;7.158;2023-01-28T07:02:55;101647.00;;;5.50
13570;BMP180;6856;51.460;7.158;2023-01-28T07:05:29;101642.00;;;5.50
13570;BMP180;6856;51.460;7.158;2023-01-28T07:08:02;101650.00;;;5.50
13570;BMP180;6856;51.460;7.158;2023-01-28T07:10:38;101654.00;;;5.50
13570;BMP180;6856;51.460;7.158;2023-01-28T07:13:12;101656.00;;;5.50
13570;BMP180;6856;51.460;7.158;2023-01-28T07:15:45;101657.00;;;5.50
13570;BMP180;6856;51.460;7.158;2023-01-28T07:18:21;101665.00;;;5.50
13570;BMP180;6856;51.460;7.158;2023-01-28T07:20:55;101657.00;;;5.50
13570;BMP180;6856;51.460;7.158;2023-01-28T07:23:29;101652.00;;;5.50
13570;BMP180;6856;51.460;7.158;2023-01-28T07:26:05;101661.00;;;5.50
13570;BMP180;6856;51.460;7.158;2023-01-28T07:28:38;101663.00;;;5.40
13570;BMP180;6856;51.460;7.158;2023-01-28T07:31:12;101665.00;;;5.50
13570;BMP180;6856;51.460;7.158;2023-01-28T07:33:46;101656.00;;;5.50
13570;BMP180;6856;51.460;7.158;2023-01-28T07:36:20;101658.00;;;5.50
13570;BMP180;6856;51.460;7.158;2023-01-28T07:38:53;101673.00;;;5.50
13570;BMP180;6856;51.460;7.158;2023-01-28T07:41:29;101676.00;;;5.50
13570;BMP180;6856;51.460;7.158;2023-01-28T07:44:05;101676.00;;;5.50
13570;BMP180;6856;51.460;7.158;2023-01-28T07:46:38;101660.00;;;5.40
13570;BMP180;6856;51.460;7.158;2023-01-28T07:49:12;101662.00;;;5.40
13570;BMP180;6856;51.460;7.158;2023-01-28T07:51:46;101661.00;;;5.40
13570;BMP180;6856;51.460;7.158;2023-01-28T07:54:22;101667.00;;;5.40
13570;BMP180;6856;51.460;7.158;2023-01-28T07:56:58;101668.00;;;5.40
13570;BMP180;6856;51.460;7.158;2023-01-28T07:59:31;101646.00;;;5.40
13570;BMP180;6856;51.460;7.158;2023-01-28T08:02:09;101683.00;;;5.40
13570;BMP180;6856;51.460;7.158;2023-01-28T08:04:45;101675.00;;;5.40
13570;BMP180;6856;51.460;7.158;2023-01-28T08:07:19;101677.00;;;5.40
13570;BMP180;6856;51.460;7.158;2023-01-28T08:09:52;101691.00;;;5.40
13570;BMP180;6856;51.460;7.158;2023-01-28T08:12:28;101683.00;;;5.40
13570;BMP180;6856;51.460;7.158;2023-01-28T08:15:02;101691.00;;;5.40
13570;BMP180;6856;51.460;7.158;2023-01-28T08:17:36;101695.00;;;5.40
13570;BMP180;6856;51.460;7.158;2023-01-28T08:20:11;101697.00;;;5.30
13570;BMP180;6856;51.460;7.158;2023-01-28T08:22:45;101710.00;;;5.40
13570;BMP180;6856;51.460;7.158;2023-01-28T08:25:21;101706.00;;;5.40
13570;BMP180;6856;51.460;7.158;2023-01-28T08:27:57;101707.00;;;5.30
13570;BMP180;6856;51.460;7.158;2023-01-28T08:30:31;101714.00;;;5.30
13570;BMP180;6856;51.460;7.158;2023-01-28T08:33:07;101715.00;;;5.40
13570;BMP180;6856;51.460;7.158;2023-01-28T08:35:41;101723.00;;;5.30
13570;BMP180;6856;51.460;7.158;2023-01-28T08:38:15;101714.00;;;5.40
13570;BMP180;6856;51.460;7.158;2023-01-28T08:40:48;101725.00;;;5.40
13570;BMP180;6856;51.460;7.158;2023-01-28T08:43:28;101740.00;;;5.40
13570;BMP180;6856;51.460;7.158;2023-01-28T08:46:04;101739.00;;;5.40
13570;BMP180;6856;51.460;7.158;2023-01-28T08:48:38;101745.00;;;5.40
13570;BMP180;6856;51.460;7.158;2023-01-28T08:51:12;101751.00;;;5.40
13570;BMP180;6856;51.460;7.158;2023-01-28T08:53:46;101759.00;;;5.40
13570;BMP180;6856;51.460;7.158;2023-01-28T08:56:19;101773.00;;;5.40
13570;BMP180;6856;51.460;7.158;2023-01-28T08:58:54;101773.00;;;5.40
13570;BMP180;6856;51.460;7.158;2023-01-28T09:01:27;101765.00;;;5.40
13570;BMP180;6856;51.460;7.158;2023-01-28T09:04:01;101768.00;;;5.40
13570;BMP180;6856;51.460;7.158;2023-01-28T09:06:38;101787.00;;;5.40
13570;BMP180;6856;51.460;7.158;2023-01-28T09:09:15;101771.00;;;5.50
13570;BMP180;6856;51.460;7.158;2023-01-28T09:11:49;101782.00;;;5.50
13570;BMP180;6856;51.460;7.158;2023-01-28T09:14:24;101775.00;;;5.50
13570;BMP180;6856;51.460;7.158;2023-01-28T09:16:58;101786.00;;;5.50
13570;BMP180;6856;51.460;7.158;2023-01-28T09:19:31;101787.00;;;5.50
13570;BMP180;6856;51.460;7.158;2023-01-28T09:22:06;101783.00;;;5.50
13570;BMP180;6856;51.460;7.158;2023-01-28T09:24:39;101777.00;;;5.50
13570;BMP180;6856;51.460;7.158;2023-01-28T09:27:13;101788.00;;;5.50
13570;BMP180;6856;51.460;7.158;2023-01-28T09:29:49;101783.00;;;5.50
13570;BMP180;6856;51.460;7.158;2023-01-28T09:32:22;101785.00;;;5.60
13570;BMP180;6856;51.460;7.158;2023-01-28T09:34:56;101804.00;;;5.60
13570;BMP180;6856;51.460;7.158;2023-01-28T09:37:30;101794.00;;;5.50
13570;BMP180;6856;51.460;7.158;2023-01-28T09:40:05;101798.00;;;5.50
13570;BMP180;6856;51.460;7.158;2023-01-28T09:42:55;101795.00;;;5.50
13570;BMP180;6856;51.460;7.158;2023-01-28T09:45:42;101799.00;;;5.50
13570;BMP180;6856;51.460;7.158;2023-01-28T09:48:20;101806.00;;;5.50
13570;BMP180;6856;51.460;7.158;2023-01-28T09:50:55;101810.00;;;5.60
13570;BMP180;6856;51.460;7.158;2023-01-28T09:53:32;101810.00;;;5.60
13570;BMP180;6856;51.460;7.158;2023-01-28T09:56:12;101804.00;;;5.60
13570;BMP180;6856;51.460;7.158;2023-01-28T09:58:48;101802.00;;;5.60
13570;BMP180;6856;51.460;7.158;2023-01-28T10:01:39;101804.00;;;5.60
13570;BMP180;6856;51.460;7.158;2023-01-28T10:04:31;101806.00;;;5.60
13570;BMP180;6856;51.460;7.158;2023-01-28T10:07:21;101793.00;;;5.70
13570;BMP180;6856;51.460;7.158;2023-01-28T10:10:07;101801.00;;;5.70
13570;BMP180;6856;51.460;7.158;2023-01-28T10:13:03;101810.00;;;5.70
13570;BMP180;6856;51.460;7.158;2023-01-28T10:15:57;101797.00;;;5.70
13570;BMP180;6856;51.460;7.158;2023-01-28T10:18:41;101809.00;;;5.70
13570;BMP180;6856;51.460;7.158;2023-01-28T10:21:21;101791.00;;;5.70
13570;BMP180;6856;51.460;7.158;2023-01-28T10:24:04;101785.00;;;5.70
13570;BMP180;6856;51.460;7.158;2023-01-28T10:26:41;101781.00;;;5.70
13570;BMP180;6856;51.460;7.158;2023-01-28T10:29:18;101782.00;;;5.70
13570;BMP180;6856;51.460;7.158;2023-01-28T10:31:54;101771.00;;;5.60
13570;BMP180;6856;51.460;7.158;2023-01-28T10:34:34;101769.00;;;5.70
13570;BMP180;6856;51.460;7.158;2023-01-28T10:37:12;101769.00;;;5.70
13570;BMP180;6856;51.460;7.158;2023-01-28T10:39:47;101776.00;;;5.80
13570;BMP180;6856;51.460;7.158;2023-01-28T10:42:28;101770.00;;;5.80
13570;BMP180;6856;51.460;7.158;2023-01-28T10:45:15;101772.00;;;5.80
13570;BMP180;6856;51.460;7.158;2023-01-28T10:47:55;101765.00;;;5.80
13570;BMP180;6856;51.460;7.158;2023-01-28T10:50:34;101786.00;;;5.90
13570;BMP180;6856;51.460;7.158;2023-01-28T10:53:07;101774.00;;;5.90
13570;BMP180;6856;51.460;7.158;2023-01-28T10:55:50;101804.00;;;5.90
13570;BMP180;6856;51.460;7.158;2023-01-28T10:58:28;101810.00;;;5.90
13570;BMP180;6856;51.460;7.158;2023-01-28T11:01:06;101799.00;;;5.90
13570;BMP180;6856;51.460;7.158;2023-01-28T11:03:53;101772.00;;;5.80
13570;BMP180;6856;51.460;7.158;2023-01-28T11:06:29;101800.00;;;5.90
13570;BMP180;6856;51.460;7.158;2023-01-28T11:09:20;101811.00;;;5.80
13570;BMP180;6856;51.460;7.158;2023-01-28T11:11:53;101807.00;;;5.90
13570;BMP180;6856;51.460;7.158;2023-01-28T11:14:27;101811.00;;;5.90
13570;BMP180;6856;51.460;7.158;2023-01-28T11:17:01;101818.00;;;5.90
13570;BMP180;6856;51.460;7.158;2023-01-28T11:19:35;101833.00;;;5.90
13570;BMP180;6856;51.460;7.158;2023-01-28T11:22:23;101827.00;;;5.90
13570;BMP180;6856;51.460;7.158;2023-01-28T11:25:01;101825.00;;;5.90
13570;BMP180;6856;51.460;7.158;2023-01-28T11:27:35;101818.00;;;5.90
13570;BMP180;6856;51.460;7.158;2023-01-28T11:30:22;101821.00;;;5.80
13570;BMP180;6856;51.460;7.158;2023-01-28T11:33:02;101816.00;;;5.80
13570;BMP180;6856;51.460;7.158;2023-01-28T11:35:38;101803.00;;;5.80
13570;BMP180;6856;51.460;7.158;2023-01-28T11:38:19;101805.00;;;5.80
13570;BMP180;6856;51.460;7.158;2023-01-28T11:40:55;101801.00;;;5.80
13570;BMP180;6856;51.460;7.158;2023-01-28T11:43:30;101803.00;;;5.90
13570;BMP180;6856;51.460;7.158;2023-01-28T11:46:24;101801.00;;;5.90
13570;BMP180;6856;51.460;7.158;2023-01-28T11:49:13;101789.00;;;5.90
13570;BMP180;6856;51.460;7.158;2023-01-28T11:51:56;101796.00;;;5.90
13570;BMP180;6856;51.460;7.158;2023-01-28T11:54:46;101797.00;;;5.90
13570;BMP180;6856;51.460;7.158;2023-01-28T11:57:36;101795.00;;;5.80
13570;BMP180;6856;51.460;7.158;2023-01-28T12:00:31;101774.00;;;5.90
13570;BMP180;6856;51.460;7.158;2023-01-28T12:03:42;101765.00;;;5.80
13570;BMP180;6856;51.460;7.158;2023-01-28T12:06:50;101795.00;;;5.90
13570;BMP180;6856;51.460;7.158;2023-01-28T12:09:37;101787.00;;;5.80
13570;BMP180;6856;51.460;7.158;2023-01-28T12:12:39;101788.00;;;5.90
13570;BMP180;6856;51.460;7.158;2023-01-28T12:15:42;101768.00;;;5.90
13570;BMP180;6856;51.460;7.158;2023-01-28T12:18:49;101752.00;;;5.90
13570;BMP180;6856;51.460;7.158;2023-01-28T12:21:41;101762.00;;;5.90
13570;BMP180;6856;51.460;7.158;2023-01-28T12:24:36;101753.00;;;5.90
13570;BMP180;6856;51.460;7.158;2023-01-28T12:27:33;101741.00;;;5.90
13570;BMP180;6856;51.460;7.158;2023-01-28T12:30:27;101743.00;;;6.00
13570;BMP180;6856;51.460;7.158;2023-01-28T12:33:30;101744.00;;;6.00
13570;BMP180;6856;51.460;7.158;2023-01-28T12:36:24;101742.00;;;6.00
13570;BMP180;6856;51.460;7.158;2023-01-28T12:39:15;101733.00;;;6.00
13570;BMP180;6856;51.460;7.158;2023-01-28T12:42:02;101717.00;;;6.10
13570;BMP180;6856;51.460;7.158;2023-01-28T12:44:44;101715.00;;;6.10
13570;BMP180;6856;51.460;7.158;2023-01-28T12:47:24;101703.00;;;6.10
13570;BMP180;6856;51.460;7.158;2023-01-28T12:50:09;101682.00;;;6.10
13570;BMP180;6856;51.460;7.158;2023-01-28T12:52:51;101683.00;;;6.10
13570;BMP180;6856;51.460;7.158;2023-01-28T12:55:39;101665.00;;;6.10
13570;BMP180;6856;51.460;7.158;2023-01-28T12:58:21;101659.00;;;6.20
13570;BMP180;6856;51.460;7.158;2023-01-28T13:01:06;101649.00;;;6.20
13570;BMP180;6856;51.460;7.158;2023-01-28T13:03:50;101667.00;;;6.20
13570;BMP180;6856;51.460;7.158;2023-01-28T13:06:32;101671.00;;;6.30
13570;BMP180;6856;51.460;7.158;2023-01-28T13:09:17;101676.00;;;6.30
13570;BMP180;6856;51.460;7.158;2023-01-28T13:11:56;101702.00;;;6.40
13570;BMP180;6856;51.460;7.158;2023-01-28T13:14:33;101702.00;;;6.50
13570;BMP180;6856;51.460;7.158;2023-01-28T13:17:11;101708.00;;;6.60
13570;BMP180;6856;51.460;7.158;2023-01-28T13:19:45;101703.00;;;6.60
13570;BMP180;6856;51.460;7.158;2023-01-28T13:22:29;101705.00;;;6.60
13570;BMP180;6856;51.460;7.158;2023-01-28T13:25:20;101708.00;;;6.60
13570;BMP180;6856;51.460;7.158;2023-01-28T13:27:57;101701.00;;;6.50
13570;BMP180;6856;51.460;7.158;2023-01-28T13:30:46;101704.00;;;6.60
13570;BMP180;6856;51.460;7.158;2023-01-28T13:33:31;101698.00;;;6.60
13570;BMP180;6856;51.460;7.158;2023-01-28T13:36:23;101699.00;;;6.60
13570;BMP180;6856;51.460;7.158;2023-01-28T13:39:05;101703.00;;;6.60
13570;BMP180;6856;51.460;7.158;2023-01-28T13:41:43;101697.00;;;6.60
13570;BMP180;6856;51.460;7.158;2023-01-28T13:44:25;101712.00;;;6.60
13570;BMP180;6856;51.460;7.158;2023-01-28T13:47:22;101707.00;;;6.70
13570;BMP180;6856;51.460;7.158;2023-01-28T13:50:01;101711.00;;;6.70
13570;BMP180;6856;51.460;7.158;2023-01-28T13:52:44;101718.00;;;6.80
13570;BMP180;6856;51.460;7.158;2023-01-28T13:55:23;101717.00;;;6.80
13570;BMP180;6856;51.460;7.158;2023-01-28T14:02:37;101734.00;;;6.90
13570;BMP180;6856;51.460;7.158;2023-01-28T14:05:45;101739.00;;;6.90
13570;BMP180;6856;51.460;7.158;2023-01-28T14:08:46;101735.00;;;6.90
13570;BMP180;6856;51.460;7.158;2023-01-28T14:12:00;101730.00;;;6.90
13570;BMP180;6856;51.460;7.158;2023-01-28T14:15:05;101737.00;;;6.90
13570;BMP180;6856;51.460;7.158;2023-01-28T14:17:49;101722.00;;;6.90
13570;BMP180;6856;51.460;7.158;2023-01-28T14:20:30;101717.00;;;6.90
13570;BMP180;6856;51.460;7.158;2023-01-28T14:23:17;101700.00;;;6.90
13570;BMP180;6856;51.460;7.158;2023-01-28T14:26:08;101695.00;;;6.80
13570;BMP180;6856;51.460;7.158;2023-01-28T14:28:57;101691.00;;;6.80
13570;BMP180;6856;51.460;7.158;2023-01-28T14:31:37;101685.00;;;6.70
13570;BMP180;6856;51.460;7.158;2023-01-28T14:34:22;101678.00;;;6.70
13570;BMP180;6856;51.460;7.158;2023-01-28T14:37:00;101674.00;;;6.70
13570;BMP180;6856;51.460;7.158;2023-01-28T14:39:44;101663.00;;;6.60
13570;BMP180;6856;51.460;7.158;2023-01-28T14:42:23;101669.00;;;6.60
13570;BMP180;6856;51.460;7.158;2023-01-28T14:45:21;101656.00;;;6.50
13570;BMP180;6856;51.460;7.158;2023-01-28T14:48:23;101641.00;;;6.40
13570;BMP180;6856;51.460;7.158;2023-01-28T14:51:32;101654.00;;;6.30
13570;BMP180;6856;51.460;7.158;2023-01-28T14:54:28;101652.00;;;6.30
13570;BMP180;6856;51.460;7.158;2023-01-28T14:57:38;101662.00;;;6.20
13570;BMP180;6856;51.460;7.158;2023-01-28T15:00:21;101666.00;;;6.10
13570;BMP180;6856;51.460;7.158;2023-01-28T15:02:55;101667.00;;;6.10
13570;BMP180;6856;51.460;7.158;2023-01-28T15:05:29;101679.00;;;6.10
13570;BMP180;6856;51.460;7.158;2023-01-28T15:08:05;101676.00;;;6.10
13570;BMP180;6856;51.460;7.158;2023-01-28T15:10:40;101686.00;;;6.10
13570;BMP180;6856;51.460;7.158;2023-01-28T15:13:22;101694.00;;;6.10
13570;BMP180;6856;51.460;7.158;2023-01-28T15:15:56;101693.00;;;6.10
13570;BMP180;6856;51.460;7.158;2023-01-28T15:18:35;101685.00;;;6.00
13570;BMP180;6856;51.460;7.158;2023-01-28T15:21:10;101680.00;;;6.00
13570;BMP180;6856;51.460;7.158;2023-01-28T15:23:49;101682.00;;;6.00
13570;BMP180;6856;51.460;7.158;2023-01-28T15:26:27;101701.00;;;6.00
13570;BMP180;6856;51.460;7.158;2023-01-28T15:29:01;101708.00;;;6.00
13570;BMP180;6856;51.460;7.158;2023-01-28T15:31:36;101710.00;;;6.00
13570;BMP180;6856;51.460;7.158;2023-01-28T15:34:13;101715.00;;;6.00
13570;BMP180;6856;51.460;7.158;2023-01-28T15:36:48;101720.00;;;6.00
13570;BMP180;6856;51.460;7.158;2023-01-28T15:39:25;101721.00;;;6.10